Time;durP1;ratioP1;P1;durP2;ratioP2;P2;SDS_P1;SDS_P2;PMS_P1;PMS_P2;Temp;Humidity;BMP_temperature;BMP_pressure;BME280_temperature;BME280_humidity;BME280_pressure;Samples;Min_cycle;Max_cycle;Signal;HPM_P1;HPM_P2
2021/12/30 00:00:41;;;;;;;20.05;5.50;;;10.20;99.90;;;;;;4953853;29;20515;-35
2021/12/30 00:03:08;;;;;;;30.85;6.05;;;10.20;99.90;;;;;;4954027;29;20035;-38
2021/12/30 00:05:34;;;;;;;29.73;6.32;;;10.30;99.90;;;;;;4934530;29;20046;-39
2021/12/30 00:08:00;;;;;;;26.42;5.75;;;10.30;99.90;;;;;;4953278;28;20049;-35
2021/12/30 00:10:26;;;;;;;35.63;5.57;;;10.30;99.90;;;;;;4953013;29;20027;-37
2021/12/30 00:12:53;;;;;;;22.52;4.95;;;10.40;99.90;;;;;;4953705;29;20113;-39
2021/12/30 00:15:19;;;;;;;30.63;4.93;;;10.50;99.90;;;;;;4953228;29;20031;-41
2021/12/30 00:17:45;;;;;;;26.15;4.88;;;10.40;99.90;;;;;;4950896;28;20062;-39
2021/12/30 00:20:11;;;;;;;26.67;4.97;;;10.50;99.90;;;;;;4953548;29;20035;-37
2021/12/30 00:22:37;;;;;;;27.83;6.05;;;10.50;99.90;;;;;;4954026;29;20563;-38
2021/12/30 00:25:04;;;;;;;35.00;5.97;;;10.60;99.90;;;;;;4954834;28;20480;-38
2021/12/30 00:27:30;;;;;;;37.00;5.85;;;10.60;99.90;;;;;;4959541;28;20027;-42
2021/12/30 00:29:56;;;;;;;33.88;5.10;;;10.60;99.90;;;;;;4959969;29;20481;-39
2021/12/30 00:32:21;;;;;;;22.60;4.82;;;10.70;99.90;;;;;;4959977;29;20392;-40
2021/12/30 00:34:47;;;;;;;28.83;4.78;;;10.70;99.90;;;;;;4957747;29;20027;-39
2021/12/30 00:37:13;;;;;;;37.20;5.13;;;10.80;99.90;;;;;;4957194;29;20066;-39
2021/12/30 00:39:39;;;;;;;27.15;4.97;;;10.80;99.90;;;;;;4959727;28;20115;-37
2021/12/30 00:42:05;;;;;;;35.13;4.75;;;10.80;99.90;;;;;;4959583;29;20388;-38
2021/12/30 00:44:31;;;;;;;39.55;5.55;;;10.80;99.90;;;;;;4959391;29;20074;-37
2021/12/30 00:46:59;;;;;;;38.33;4.78;;;10.80;99.90;;;;;;4959816;28;20492;-34
2021/12/30 00:49:25;;;;;;;32.03;5.07;;;10.80;99.90;;;;;;4958569;28;20110;-38
2021/12/30 00:51:51;;;;;;;41.63;4.68;;;10.90;99.90;;;;;;4960082;28;20023;-36
2021/12/30 00:54:16;;;;;;;22.42;4.45;;;10.90;99.90;;;;;;4955771;28;20090;-39
2021/12/30 00:56:42;;;;;;;27.92;5.63;;;11.00;99.90;;;;;;4958672;28;20496;-38
2021/12/30 00:59:07;;;;;;;36.63;4.65;;;11.00;99.90;;;;;;4960098;29;20424;-37
2021/12/30 01:01:34;;;;;;;34.67;5.50;;;11.10;99.90;;;;;;4941230;29;20031;-37
2021/12/30 01:03:59;;;;;;;26.77;5.43;;;11.00;99.90;;;;;;4959746;29;20062;-39
2021/12/30 01:06:25;;;;;;;44.08;6.05;;;11.20;99.90;;;;;;4958612;28;20062;-39
2021/12/30 01:08:51;;;;;;;34.95;6.35;;;11.20;99.90;;;;;;4959740;28;20031;-34
2021/12/30 01:11:20;;;;;;;34.00;6.28;;;11.30;99.90;;;;;;4960195;29;20391;-38
2021/12/30 01:13:50;;;;;;;27.33;5.55;;;11.30;99.90;;;;;;4959635;28;20395;-40
2021/12/30 01:16:18;;;;;;;45.42;6.63;;;11.40;99.90;;;;;;4958004;29;20034;-37
2021/12/30 01:21:31;;;;;;;38.75;7.30;;;11.50;99.90;;;;;;4959097;29;20035;-35
2021/12/30 01:23:57;;;;;;;28.30;6.30;;;11.50;99.90;;;;;;4959184;29;20031;-51
2021/12/30 01:26:23;;;;;;;27.40;6.95;;;11.60;99.90;;;;;;4958148;29;20550;-42
2021/12/30 01:28:49;;;;;;;38.83;6.50;;;11.60;99.90;;;;;;4959018;28;20023;-39
2021/12/30 01:31:16;;;;;;;32.20;6.97;;;11.60;99.90;;;;;;4957732;29;20063;-38
2021/12/30 01:33:43;;;;;;;33.88;6.13;;;11.60;99.90;;;;;;4954973;29;20038;-40
2021/12/30 01:36:10;;;;;;;25.50;6.05;;;11.70;99.90;;;;;;4955660;28;20579;-40
2021/12/30 01:38:37;;;;;;;20.70;4.77;;;11.80;99.90;;;;;;4953962;29;20038;-35
2021/12/30 01:41:03;;;;;;;29.38;6.25;;;11.80;99.90;;;;;;4937447;29;20039;-38
2021/12/30 01:43:29;;;;;;;30.45;6.70;;;11.90;99.90;;;;;;4955203;29;20491;-40
2021/12/30 01:45:55;;;;;;;33.13;7.20;;;11.90;99.90;;;;;;4951569;29;20024;-41
2021/12/30 01:48:21;;;;;;;30.83;7.07;;;11.90;99.90;;;;;;4949017;29;20051;-36
2021/12/30 01:50:48;;;;;;;25.80;6.75;;;12.00;99.90;;;;;;4949149;29;20415;-36
2021/12/30 01:53:15;;;;;;;27.53;7.87;;;12.00;99.90;;;;;;4950009;29;20030;-36
2021/12/30 01:55:42;;;;;;;23.83;7.47;;;12.10;99.90;;;;;;4949406;29;20121;-37
2021/12/30 01:58:09;;;;;;;26.27;8.07;;;12.10;99.90;;;;;;4946699;29;20484;-35
2021/12/30 02:00:37;;;;;;;30.08;7.72;;;12.10;99.90;;;;;;4950405;29;20480;-42
2021/12/30 02:03:03;;;;;;;;;;;12.20;99.90;;;;;;4953135;29;20472;-41
2021/12/30 02:05:29;;;;;;;25.83;6.72;;;12.20;99.90;;;;;;4953958;29;19917;-38
2021/12/30 02:07:55;;;;;;;30.30;8.13;;;12.20;99.90;;;;;;4938593;29;20051;-36
2021/12/30 02:10:21;;;;;;;25.13;7.20;;;12.30;99.90;;;;;;4956465;29;20387;-39
2021/12/30 02:12:47;;;;;;;27.48;7.28;;;12.30;99.90;;;;;;4955975;29;20107;-36
2021/12/30 02:15:17;;;;;;;27.77;7.57;;;12.40;99.90;;;;;;4956012;29;20042;-33
2021/12/30 02:17:44;;;;;;;30.70;7.78;;;12.40;99.90;;;;;;4956655;29;20389;-35
2021/12/30 02:20:13;;;;;;;21.60;7.53;;;12.40;99.90;;;;;;4956007;29;20028;-33
2021/12/30 02:22:39;;;;;;;31.05;7.50;;;12.40;99.90;;;;;;4956292;29;20436;-38
2021/12/30 02:25:06;;;;;;;24.27;7.13;;;12.40;99.90;;;;;;4956185;29;20031;-37
2021/12/30 02:27:31;;;;;;;30.35;6.97;;;12.40;99.90;;;;;;4937376;29;20476;-41
2021/12/30 02:29:57;;;;;;;21.30;6.43;;;12.40;99.90;;;;;;4955324;29;20034;-37
2021/12/30 02:32:25;;;;;;;29.92;7.07;;;12.50;99.90;;;;;;4956141;29;20035;-40
2021/12/30 02:34:52;;;;;;;13.63;5.82;;;12.50;99.90;;;;;;4956388;29;20389;-40
2021/12/30 02:37:19;;;;;;;28.50;6.68;;;12.50;99.90;;;;;;4955950;29;20027;-37
2021/12/30 02:39:52;;;;;;;17.48;6.65;;;12.50;99.90;;;;;;4955746;29;20031;-39
2021/12/30 02:42:21;;;;;;;23.70;6.13;;;12.50;99.90;;;;;;4956306;29;20058;-33
2021/12/30 02:44:47;;;;;;;14.93;6.40;;;12.50;99.90;;;;;;4956364;28;20121;-41
2021/12/30 02:47:14;;;;;;;13.05;6.00;;;12.60;99.90;;;;;;4956162;29;20388;-37
2021/12/30 02:49:40;;;;;;;24.95;6.20;;;12.60;99.90;;;;;;4953609;28;20584;-40
2021/12/30 02:52:06;;;;;;;16.05;7.32;;;12.60;99.90;;;;;;4951802;29;20476;-34
2021/12/30 02:54:32;;;;;;;17.30;6.03;;;12.60;99.90;;;;;;4955236;29;20031;-34
2021/12/30 02:56:57;;;;;;;18.77;5.85;;;12.60;99.90;;;;;;4955596;29;20043;-36
2021/12/30 02:59:23;;;;;;;11.85;5.70;;;12.70;99.90;;;;;;4955387;29;20055;-36
2021/12/30 03:01:49;;;;;;;26.25;6.60;;;12.70;99.90;;;;;;4955096;29;20030;-36
2021/12/30 03:04:15;;;;;;;17.98;6.88;;;12.70;99.90;;;;;;4955482;29;20522;-35
2021/12/30 03:06:41;;;;;;;14.63;7.00;;;12.70;99.90;;;;;;4951403;29;20055;-37
2021/12/30 03:09:07;;;;;;;16.30;6.55;;;12.80;99.90;;;;;;4953931;29;20046;-38
2021/12/30 03:11:32;;;;;;;12.10;5.97;;;12.70;99.90;;;;;;4955830;28;20094;-41
2021/12/30 03:14:00;;;;;;;16.00;6.20;;;12.80;99.90;;;;;;4955121;29;20070;-35
2021/12/30 03:16:31;;;;;;;23.83;6.13;;;12.80;99.90;;;;;;4953854;29;20037;-36
2021/12/30 03:18:58;;;;;;;10.93;5.43;;;12.80;99.90;;;;;;4954695;29;20480;-39
2021/12/30 03:21:24;;;;;;;13.38;6.22;;;12.80;99.90;;;;;;4955375;29;20457;-31
2021/12/30 03:23:52;;;;;;;10.57;5.97;;;12.80;99.90;;;;;;4937345;29;20566;-35
2021/12/30 03:26:18;;;;;;;11.70;5.90;;;12.90;99.90;;;;;;4954663;29;20464;-38
2021/12/30 03:28:45;;;;;;;13.88;5.97;;;12.90;99.90;;;;;;4954683;29;20034;-39
2021/12/30 03:31:13;;;;;;;9.93;5.43;;;12.80;99.90;;;;;;4954897;29;20464;-38
2021/12/30 03:33:39;;;;;;;9.95;4.93;;;12.80;99.90;;;;;;4955071;29;20023;-38
2021/12/30 03:36:06;;;;;;;17.20;6.95;;;12.80;99.90;;;;;;4954809;29;20028;-37
2021/12/30 03:38:35;;;;;;;13.90;5.30;;;12.80;99.90;;;;;;4954255;29;20090;-36
2021/12/30 03:41:03;;;;;;;12.90;5.88;;;12.80;99.90;;;;;;4954851;29;20123;-31
2021/12/30 03:43:29;;;;;;;9.27;5.30;;;12.90;99.90;;;;;;4954655;29;20027;-37
2021/12/30 03:45:54;;;;;;;12.07;5.95;;;12.80;99.90;;;;;;4954893;29;20031;-34
2021/12/30 03:48:20;;;;;;;15.73;6.07;;;12.80;99.90;;;;;;4954610;29;20031;-41
2021/12/30 03:50:47;;;;;;;12.60;5.85;;;12.90;99.90;;;;;;4954378;29;20031;-40
2021/12/30 03:53:15;;;;;;;17.67;5.78;;;12.90;99.90;;;;;;4954193;29;20489;-38
2021/12/30 03:55:42;;;;;;;14.35;6.05;;;13.00;99.90;;;;;;4927477;29;20034;-35
2021/12/30 03:58:08;;;;;;;10.98;6.07;;;12.90;99.90;;;;;;4954082;29;20492;-36
2021/12/30 04:00:36;;;;;;;12.02;6.43;;;12.90;99.90;;;;;;4951034;29;20027;-36
2021/12/30 04:03:02;;;;;;;15.80;6.25;;;12.90;99.90;;;;;;4953496;29;20551;-35
2021/12/30 04:05:28;;;;;;;12.57;6.35;;;13.00;99.90;;;;;;4954874;29;20554;-35
2021/12/30 04:07:54;;;;;;;11.40;6.05;;;13.00;99.90;;;;;;4954047;29;20126;-34
2021/12/30 04:10:24;;;;;;;20.10;6.78;;;13.00;99.90;;;;;;4954252;29;20106;-33
2021/12/30 04:12:51;;;;;;;14.90;6.70;;;13.00;99.90;;;;;;4954114;29;20137;-36
2021/12/30 04:15:17;;;;;;;20.60;6.57;;;13.00;99.90;;;;;;4941898;29;20043;-37
2021/12/30 04:17:43;;;;;;;16.30;7.00;;;13.00;99.90;;;;;;4954309;29;20027;-38
2021/12/30 04:20:11;;;;;;;14.88;6.32;;;13.00;99.90;;;;;;4954287;29;20464;-38
2021/12/30 04:22:38;;;;;;;11.38;5.63;;;13.10;99.90;;;;;;4953434;29;20549;-35
2021/12/30 04:25:06;;;;;;;9.80;6.40;;;13.00;99.90;;;;;;4953816;29;20496;-41
2021/12/30 04:27:31;;;;;;;;;;;12.90;99.90;;;;;;4954996;29;20054;-41
2021/12/30 04:29:57;;;;;;;9.73;4.97;;;13.00;99.90;;;;;;4954253;29;20463;-39
2021/12/30 04:32:23;;;;;;;12.68;5.38;;;13.00;99.90;;;;;;4954026;29;20058;-35
2021/12/30 04:34:48;;;;;;;8.48;4.80;;;12.90;99.90;;;;;;4953115;29;20488;-36
2021/12/30 04:37:14;;;;;;;9.70;4.93;;;12.90;99.90;;;;;;4954188;29;20020;-40
2021/12/30 04:39:39;;;;;;;5.93;4.15;;;12.90;99.90;;;;;;4954204;29;20027;-37
2021/12/30 04:42:05;;;;;;;10.65;5.03;;;13.00;99.90;;;;;;4953893;29;20102;-35
2021/12/30 04:44:31;;;;;;;5.65;4.13;;;13.00;99.90;;;;;;4953959;29;20272;-36
2021/12/30 04:46:57;;;;;;;9.43;5.38;;;13.00;99.90;;;;;;4954391;29;20122;-35
2021/12/30 04:49:24;;;;;;;13.55;6.18;;;12.90;99.90;;;;;;4954151;29;20027;-39
2021/12/30 04:51:50;;;;;;;10.85;5.43;;;12.90;99.90;;;;;;4953462;29;20023;-31
2021/12/30 04:54:16;;;;;;;15.52;6.78;;;12.80;99.90;;;;;;4951348;29;20531;-38
2021/12/30 04:56:41;;;;;;;16.48;5.95;;;12.90;99.90;;;;;;4953944;29;20055;-38
2021/12/30 04:59:07;;;;;;;15.70;7.68;;;12.90;99.90;;;;;;4953765;29;20124;-38
2021/12/30 05:01:33;;;;;;;17.42;7.18;;;13.00;99.90;;;;;;4953452;29;20102;-34
2021/12/30 05:03:58;;;;;;;14.60;6.53;;;12.90;99.90;;;;;;4944569;29;20106;-38
2021/12/30 05:06:24;;;;;;;12.60;6.30;;;12.90;99.90;;;;;;4954298;29;20083;-36
2021/12/30 05:08:50;;;;;;;18.10;7.60;;;12.90;99.90;;;;;;4953886;29;20027;-39
2021/12/30 05:11:15;;;;;;;15.65;7.05;;;12.90;99.90;;;;;;4953032;28;20026;-40
2021/12/30 05:13:41;;;;;;;26.08;7.88;;;12.80;99.90;;;;;;4957653;29;20086;-40
2021/12/30 05:16:07;;;;;;;17.50;7.03;;;12.80;99.90;;;;;;4957624;29;20062;-37
2021/12/30 05:18:33;;;;;;;21.77;7.15;;;12.70;99.90;;;;;;4957386;29;20090;-37
2021/12/30 05:21:04;;;;;;;29.13;8.85;;;12.80;99.90;;;;;;4957273;29;20460;-39
2021/12/30 05:23:30;;;;;;;21.90;7.70;;;12.80;99.90;;;;;;4939427;29;20484;-36
2021/12/30 05:25:56;;;;;;;27.77;8.15;;;12.80;99.90;;;;;;4957214;29;20034;-39
2021/12/30 05:28:22;;;;;;;20.42;8.18;;;12.70;99.90;;;;;;4940448;29;20078;-38
2021/12/30 05:30:48;;;;;;;31.77;8.75;;;12.70;99.90;;;;;;4956825;29;20028;-37
2021/12/30 05:33:14;;;;;;;22.40;7.80;;;12.60;99.90;;;;;;4957091;29;20039;-38
2021/12/30 05:35:40;;;;;;;18.88;7.38;;;12.70;99.90;;;;;;4956776;29;20035;-35
2021/12/30 05:38:06;;;;;;;18.88;7.13;;;12.70;99.90;;;;;;4957269;29;20502;-41
2021/12/30 05:40:32;;;;;;;15.82;6.43;;;12.70;99.90;;;;;;4957271;29;20030;-38
2021/12/30 05:42:59;;;;;;;17.48;6.45;;;12.70;99.90;;;;;;4939764;29;20035;-32
2021/12/30 05:45:26;;;;;;;20.23;6.47;;;12.70;99.90;;;;;;4956900;29;20023;-39
2021/12/30 05:47:52;;;;;;;15.68;6.70;;;12.60;99.90;;;;;;4957484;29;20195;-38
2021/12/30 05:50:21;;;;;;;19.65;6.78;;;12.60;99.90;;;;;;4954348;29;20365;-34
2021/12/30 05:52:47;;;;;;;13.23;5.88;;;12.70;99.90;;;;;;4956957;29;20027;-37
2021/12/30 05:55:14;;;;;;;21.90;6.20;;;12.70;99.90;;;;;;4956436;29;20098;-40
2021/12/30 05:57:40;;;;;;;18.77;6.78;;;12.70;99.90;;;;;;4956625;29;20044;-39
2021/12/30 06:00:12;;;;;;;17.67;6.75;;;12.70;99.90;;;;;;4956812;29;20019;-38
2021/12/30 06:02:38;;;;;;;15.50;5.43;;;12.70;99.90;;;;;;4956936;29;20384;-39
2021/12/30 06:05:04;;;;;;;16.40;4.85;;;12.80;99.90;;;;;;4956427;29;20019;-36
2021/12/30 06:07:30;;;;;;;13.25;4.80;;;12.80;99.90;;;;;;4956693;29;20388;-38
2021/12/30 06:09:56;;;;;;;13.82;4.68;;;12.90;99.90;;;;;;4952696;29;20396;-39
2021/12/30 06:12:22;;;;;;;12.00;4.32;;;12.90;99.90;;;;;;4956796;29;20163;-35
2021/12/30 06:14:47;;;;;;;14.73;4.57;;;12.90;99.90;;;;;;4956083;29;20046;-37
2021/12/30 06:17:15;;;;;;;9.20;3.47;;;12.90;99.90;;;;;;4956068;29;20031;-37
2021/12/30 06:19:42;;;;;;;7.32;4.10;;;12.90;99.90;;;;;;4955924;29;20627;-40
2021/12/30 06:22:08;;;;;;;7.38;4.32;;;12.90;99.90;;;;;;4955831;29;20027;-37
2021/12/30 06:24:34;;;;;;;8.15;4.70;;;12.90;99.90;;;;;;4955482;28;20031;-41
2021/12/30 06:27:00;;;;;;;10.35;4.20;;;12.90;99.90;;;;;;4955590;29;20492;-41
2021/12/30 06:29:25;;;;;;;7.57;3.65;;;13.00;99.90;;;;;;4937408;29;20090;-36
2021/12/30 06:31:51;;;;;;;7.15;3.63;;;13.00;99.90;;;;;;4956012;29;20082;-38
2021/12/30 06:34:17;;;;;;;9.70;3.30;;;12.90;99.90;;;;;;4938964;29;20035;-37
2021/12/30 06:36:42;;;;;;;11.13;3.00;;;13.00;99.90;;;;;;4955423;29;20035;-37
2021/12/30 06:39:08;;;;;;;9.45;2.90;;;13.00;99.90;;;;;;4955727;29;20019;-34
2021/12/30 06:41:34;;;;;;;3.40;2.30;;;13.00;99.90;;;;;;4956252;29;20028;-37
2021/12/30 06:44:01;;;;;;;3.33;2.03;;;13.00;99.90;;;;;;4956486;29;20482;-37
2021/12/30 06:49:10;;;;;;;4.03;1.85;;;13.00;99.90;;;;;;4955632;29;20074;-37
2021/12/30 06:51:36;;;;;;;2.20;2.00;;;13.10;99.90;;;;;;4955160;29;20027;-34
2021/12/30 06:54:05;;;;;;;4.70;2.33;;;13.10;99.90;;;;;;4956083;29;20468;-39
2021/12/30 06:56:31;;;;;;;3.83;1.85;;;13.00;99.90;;;;;;4955439;29;20126;-40
2021/12/30 06:58:57;;;;;;;2.60;1.85;;;13.00;99.90;;;;;;4955561;29;20139;-33
2021/12/30 07:01:23;;;;;;;2.00;1.80;;;13.00;99.90;;;;;;4955660;29;20102;-36
2021/12/30 07:03:48;;;;;;;6.53;1.98;;;13.00;99.90;;;;;;4954340;29;20107;-38
2021/12/30 07:06:14;;;;;;;6.22;1.67;;;13.10;99.90;;;;;;4955534;29;20019;-36
2021/12/30 07:08:40;;;;;;;4.60;1.88;;;13.10;99.90;;;;;;4955328;29;20538;-39
2021/12/30 07:11:06;;;;;;;3.10;2.22;;;13.00;99.90;;;;;;4955460;29;20031;-33
2021/12/30 07:13:31;;;;;;;6.65;1.67;;;13.00;99.90;;;;;;4955121;29;20397;-35
2021/12/30 07:15:57;;;;;;;5.30;2.25;;;13.10;99.90;;;;;;4954861;29;20027;-42
2021/12/30 07:18:23;;;;;;;4.10;1.70;;;13.10;99.90;;;;;;4955571;29;20498;-34
2021/12/30 07:20:48;;;;;;;5.15;1.73;;;13.10;99.90;;;;;;4955250;29;20031;-36
2021/12/30 07:23:14;;;;;;;2.90;1.80;;;13.10;99.90;;;;;;4954931;29;20027;-35
2021/12/30 07:25:40;;;;;;;3.58;2.03;;;13.00;99.90;;;;;;4955136;29;20027;-48
2021/12/30 07:28:06;;;;;;;4.70;2.10;;;13.00;99.90;;;;;;4955354;29;20045;-37
2021/12/30 07:30:32;;;;;;;6.25;2.63;;;13.10;99.90;;;;;;4955646;29;20515;-38
2021/12/30 07:32:58;;;;;;;2.80;1.85;;;13.10;99.90;;;;;;4954774;29;20062;-37
2021/12/30 07:35:25;;;;;;;2.95;1.70;;;13.00;99.90;;;;;;4954324;28;20058;-39
2021/12/30 07:37:51;;;;;;;9.37;2.67;;;13.10;99.90;;;;;;4948740;29;20385;-36
2021/12/30 07:40:18;;;;;;;6.97;2.85;;;13.00;99.90;;;;;;4950766;29;20027;-36
2021/12/30 07:42:44;;;;;;;8.38;3.17;;;13.00;99.90;;;;;;4954747;29;20095;-38
2021/12/30 07:45:11;;;;;;;10.05;3.20;;;13.10;99.90;;;;;;4943737;29;20020;-39
2021/12/30 07:47:40;;;;;;;10.95;4.22;;;13.10;99.90;;;;;;4955150;29;20035;-38
2021/12/30 07:50:07;;;;;;;13.18;4.38;;;13.10;99.90;;;;;;4955155;29;20587;-36
2021/12/30 07:52:34;;;;;;;8.57;4.30;;;13.00;99.90;;;;;;4955061;29;20093;-35
2021/12/30 07:55:00;;;;;;;12.20;4.38;;;13.00;99.90;;;;;;4954759;29;20481;-35
2021/12/30 07:57:26;;;;;;;10.88;3.78;;;13.00;99.90;;;;;;4954614;29;20047;-33
2021/12/30 07:59:52;;;;;;;15.90;4.47;;;13.00;99.90;;;;;;4954851;29;20477;-38
2021/12/30 08:02:19;;;;;;;12.07;3.83;;;13.10;99.90;;;;;;4954643;29;20471;-36
2021/12/30 08:04:45;;;;;;;11.90;3.78;;;13.10;99.90;;;;;;4953874;29;20023;-42
2021/12/30 08:07:11;;;;;;;9.43;3.15;;;13.10;99.90;;;;;;4954905;29;20034;-36
2021/12/30 08:09:37;;;;;;;10.32;3.85;;;13.10;99.90;;;;;;4954614;29;20039;-35
2021/12/30 08:12:03;;;;;;;16.55;3.40;;;13.10;99.90;;;;;;4954660;29;20098;-38
2021/12/30 08:14:29;;;;;;;7.95;3.03;;;13.10;99.90;;;;;;4954123;29;20514;-37
2021/12/30 08:16:55;;;;;;;8.75;3.85;;;13.20;99.90;;;;;;4951793;29;20063;-36
2021/12/30 08:19:21;;;;;;;7.72;3.28;;;13.20;99.90;;;;;;4952986;29;20027;-41
2021/12/30 08:21:47;;;;;;;9.70;3.35;;;13.20;99.90;;;;;;4954297;29;20043;-36
2021/12/30 08:24:12;;;;;;;15.18;4.00;;;13.20;99.90;;;;;;4952689;29;20028;-53
2021/12/30 08:26:40;;;;;;;13.63;4.72;;;13.20;99.90;;;;;;4954478;29;20496;-39
2021/12/30 08:29:06;;;;;;;14.60;3.73;;;13.20;99.90;;;;;;4948866;29;20020;-38
2021/12/30 08:31:36;;;;;;;27.42;5.85;;;13.20;99.90;;;;;;4952171;29;20321;-36
2021/12/30 08:34:02;;;;;;;11.00;3.38;;;13.20;99.90;;;;;;4954350;29;20023;-36
2021/12/30 08:36:28;;;;;;;18.65;3.72;;;13.30;99.90;;;;;;4954462;29;20570;-36
2021/12/30 08:38:54;;;;;;;23.02;3.72;;;13.20;99.90;;;;;;4953390;29;20027;-35
2021/12/30 08:41:20;;;;;;;12.40;3.40;;;13.20;99.90;;;;;;4954086;29;20095;-35
2021/12/30 08:43:45;;;;;;;23.58;4.55;;;13.20;99.90;;;;;;4954426;29;20027;-39
2021/12/30 08:46:11;;;;;;;23.20;3.55;;;13.10;99.90;;;;;;4954283;28;20046;-40
2021/12/30 08:48:38;;;;;;;16.50;3.80;;;13.20;99.90;;;;;;4957627;29;20027;-38
2021/12/30 08:51:04;;;;;;;22.33;4.97;;;13.20;99.90;;;;;;4958017;29;20464;-40
2021/12/30 08:53:30;;;;;;;12.25;2.83;;;13.20;99.90;;;;;;4958485;29;20027;-40
2021/12/30 08:55:56;;;;;;;14.20;3.45;;;13.20;99.90;;;;;;4957722;29;20106;-37
2021/12/30 08:58:21;;;;;;;22.50;3.30;;;13.20;99.90;;;;;;4957376;29;20027;-38
2021/12/30 09:00:47;;;;;;;14.07;4.07;;;13.20;99.90;;;;;;4956524;29;20058;-42
2021/12/30 09:03:15;;;;;;;26.98;4.85;;;13.20;99.90;;;;;;4957800;29;20110;-40
2021/12/30 09:05:41;;;;;;;;;;;13.20;99.90;;;;;;4958451;29;20055;-36
2021/12/30 09:08:07;;;;;;;26.10;4.18;;;13.20;99.90;;;;;;4957929;29;19906;-42
2021/12/30 09:10:37;;;;;;;18.30;4.07;;;13.30;99.90;;;;;;4957208;29;20031;-41
2021/12/30 09:13:03;;;;;;;24.63;4.47;;;13.30;99.90;;;;;;4956405;29;20543;-37
2021/12/30 09:15:30;;;;;;;19.33;3.65;;;13.30;99.90;;;;;;4952409;29;20030;-34
2021/12/30 09:17:56;;;;;;;14.35;3.58;;;13.40;99.90;;;;;;4957514;29;20058;-38
2021/12/30 09:20:22;;;;;;;18.48;2.70;;;13.40;99.90;;;;;;4955950;29;20484;-37
2021/12/30 09:22:50;;;;;;;17.23;3.58;;;13.40;99.90;;;;;;4957550;29;20028;-41
2021/12/30 09:25:19;;;;;;;14.75;3.28;;;13.50;99.90;;;;;;4957702;28;20081;-39
2021/12/30 09:27:45;;;;;;;17.90;3.58;;;13.60;99.90;;;;;;4957515;29;20484;-37
2021/12/30 09:30:12;;;;;;;17.73;3.83;;;13.60;99.90;;;;;;4957618;29;20034;-40
2021/12/30 09:32:38;;;;;;;16.42;3.58;;;13.60;99.90;;;;;;4957392;29;20031;-36
2021/12/30 09:35:05;;;;;;;24.75;3.15;;;13.60;99.90;;;;;;4956499;29;20031;-38
2021/12/30 09:37:31;;;;;;;17.05;3.38;;;13.60;99.90;;;;;;4957161;29;20531;-40
2021/12/30 09:40:15;;;;;;;25.13;3.35;;;13.60;99.90;;;;;;4955890;29;20066;-39
2021/12/30 09:42:49;;;;;;;26.67;3.83;;;13.70;99.90;;;;;;4957095;29;20034;-41
2021/12/30 09:45:16;;;;;;;15.80;3.70;;;13.60;99.90;;;;;;4955716;29;20016;-36
2021/12/30 09:47:48;;;;;;;15.32;4.15;;;13.70;99.90;;;;;;4956770;29;20511;-39
2021/12/30 09:50:16;;;;;;;17.17;3.53;;;13.70;99.90;;;;;;4956211;29;20042;-39
2021/12/30 09:52:42;;;;;;;20.75;3.40;;;13.70;99.90;;;;;;4957034;29;20031;-35
2021/12/30 09:55:09;;;;;;;24.00;3.45;;;13.70;99.90;;;;;;4955293;29;20027;-42
2021/12/30 09:57:35;;;;;;;19.08;3.33;;;13.80;99.90;;;;;;4955829;28;20055;-39
2021/12/30 10:00:00;;;;;;;10.00;2.60;;;13.70;99.90;;;;;;4955260;29;20469;-40
2021/12/30 10:02:26;;;;;;;39.88;5.50;;;13.70;99.90;;;;;;4955143;29;20031;-37
2021/12/30 10:05:10;;;;;;;25.25;3.13;;;13.80;99.90;;;;;;4956578;29;20030;-40
2021/12/30 10:07:39;;;;;;;24.55;3.25;;;13.80;99.90;;;;;;4956870;29;20523;-37
2021/12/30 10:10:33;;;;;;;14.73;3.08;;;13.80;99.90;;;;;;4955075;29;20392;-41
2021/12/30 10:13:00;;;;;;;20.25;3.10;;;13.80;99.90;;;;;;4952784;29;20034;-41
2021/12/30 10:15:29;;;;;;;23.98;4.32;;;13.90;99.90;;;;;;4953246;29;20516;-35
2021/12/30 10:17:58;;;;;;;12.32;2.95;;;14.00;99.90;;;;;;4956005;29;20425;-39
2021/12/30 10:20:29;;;;;;;15.23;2.78;;;13.90;99.90;;;;;;4955530;29;20531;-41
2021/12/30 10:23:07;;;;;;;17.92;3.58;;;13.90;99.90;;;;;;4956433;29;20027;-37
2021/12/30 10:25:34;;;;;;;;;;;13.80;99.90;;;;;;4956372;29;20030;-38
2021/12/30 10:28:24;;;;;;;13.90;2.38;;;13.80;99.90;;;;;;4954666;29;19921;-42
2021/12/30 10:30:53;;;;;;;22.63;3.25;;;13.80;99.90;;;;;;4945403;29;20067;-41
2021/12/30 10:33:24;;;;;;;13.93;2.95;;;13.80;99.90;;;;;;4955797;29;20527;-40
2021/12/30 10:35:51;;;;;;;12.88;2.95;;;13.70;99.90;;;;;;4956312;29;20106;-39
2021/12/30 10:38:16;;;;;;;15.93;3.22;;;13.70;99.90;;;;;;4954878;29;20090;-54
2021/12/30 10:40:48;;;;;;;13.25;2.95;;;13.80;99.90;;;;;;4955537;29;20388;-40
2021/12/30 10:43:37;;;;;;;19.25;3.42;;;13.70;99.90;;;;;;4955519;29;20054;-36
2021/12/30 10:46:19;;;;;;;21.38;2.90;;;13.80;99.90;;;;;;4953938;29;20079;-50
2021/12/30 10:48:46;;;;;;;14.70;2.42;;;13.80;99.90;;;;;;4955524;29;20079;-40
2021/12/30 10:51:18;;;;;;;12.07;2.00;;;13.80;99.90;;;;;;4954784;29;20035;-59
2021/12/30 10:53:45;;;;;;;15.07;2.90;;;13.80;99.90;;;;;;4954665;29;20031;-40
2021/12/30 10:56:18;;;;;;;11.10;2.53;;;13.80;99.90;;;;;;4953569;29;20063;-40
2021/12/30 10:58:44;;;;;;;12.52;2.60;;;13.90;99.90;;;;;;4948623;29;20023;-43
2021/12/30 11:01:28;;;;;;;13.57;3.08;;;13.90;99.90;;;;;;4949521;29;20495;-41
2021/12/30 11:03:59;;;;;;;15.75;3.42;;;13.80;99.90;;;;;;4948532;29;20109;-37
2021/12/30 11:06:26;;;;;;;20.60;3.22;;;13.80;99.90;;;;;;4947962;29;20473;-42
2021/12/30 11:09:07;;;;;;;22.65;2.97;;;13.80;99.90;;;;;;4947705;28;20029;-41
2021/12/30 11:11:33;;;;;;;16.75;3.67;;;13.80;99.90;;;;;;4946860;29;20400;-41
2021/12/30 11:14:09;;;;;;;21.10;3.50;;;13.90;99.90;;;;;;4934116;29;20027;-39
2021/12/30 11:17:00;;;;;;;16.38;2.30;;;13.80;99.90;;;;;;4955284;29;20034;-37
2021/12/30 11:19:31;;;;;;;14.60;3.03;;;13.80;99.90;;;;;;4947005;29;21231;-41
2021/12/30 11:22:01;;;;;;;20.05;2.83;;;13.80;99.90;;;;;;4952340;29;20118;-39
2021/12/30 11:24:28;;;;;;;13.80;3.03;;;13.80;99.90;;;;;;4942223;29;20495;-35
2021/12/30 11:26:55;;;;;;;18.20;3.30;;;13.70;99.90;;;;;;4948992;29;20509;-41
2021/12/30 11:29:22;;;;;;;14.38;3.85;;;13.70;99.90;;;;;;4946726;29;20055;-38
2021/12/30 11:31:48;;;;;;;14.02;3.67;;;13.60;99.90;;;;;;4945574;29;20122;-38
2021/12/30 11:34:13;;;;;;;11.02;3.97;;;13.60;99.90;;;;;;4950237;29;20118;-42
2021/12/30 11:36:39;;;;;;;17.90;3.65;;;13.60;99.90;;;;;;4948340;29;20467;-39
2021/12/30 11:39:13;;;;;;;11.27;4.00;;;13.70;99.90;;;;;;4945772;29;20117;-40
2021/12/30 11:41:42;;;;;;;11.05;3.60;;;13.70;99.90;;;;;;4943556;29;20032;-40
2021/12/30 11:44:08;;;;;;;9.85;3.38;;;13.60;99.90;;;;;;4949668;29;20504;-41
2021/12/30 11:46:45;;;;;;;13.55;3.10;;;13.70;99.90;;;;;;4949067;29;20054;-38
2021/12/30 11:49:14;;;;;;;21.80;3.40;;;13.70;99.90;;;;;;4953460;29;20035;-40
2021/12/30 11:51:45;;;;;;;14.63;3.45;;;13.70;99.90;;;;;;4953033;29;20024;-38
2021/12/30 11:54:35;;;;;;;9.52;2.80;;;13.70;99.90;;;;;;4951898;29;20539;-37
2021/12/30 11:57:28;;;;;;;19.08;2.97;;;13.70;99.90;;;;;;4940774;29;20515;-38
2021/12/30 11:59:59;;;;;;;14.05;2.63;;;13.70;99.90;;;;;;4949897;29;20114;-38
2021/12/30 12:02:37;;;;;;;12.90;2.97;;;13.70;99.90;;;;;;4952978;29;20741;-38
2021/12/30 12:05:39;;;;;;;20.08;2.75;;;13.70;99.90;;;;;;4949445;29;20061;-41
2021/12/30 12:08:06;;;;;;;17.88;3.25;;;13.70;99.90;;;;;;4947754;29;20571;-38
2021/12/30 12:10:32;;;;;;;11.33;3.23;;;13.70;99.90;;;;;;4951546;29;20082;-36
2021/12/30 12:12:57;;;;;;;23.35;3.20;;;13.80;99.90;;;;;;4952197;29;20058;-41
2021/12/30 12:15:41;;;;;;;15.30;3.15;;;13.70;99.90;;;;;;4950871;29;20033;-39
2021/12/30 12:18:11;;;;;;;11.55;2.88;;;13.80;99.90;;;;;;4946318;29;20693;-40
2021/12/30 12:20:51;;;;;;;8.90;2.65;;;13.80;99.90;;;;;;4947645;29;20383;-36
2021/12/30 12:23:32;;;;;;;11.25;3.00;;;13.90;99.90;;;;;;4948360;29;20506;-36
2021/12/30 12:26:14;;;;;;;9.10;2.53;;;13.80;99.90;;;;;;4947206;29;20030;-34
2021/12/30 12:28:40;;;;;;;8.95;3.22;;;13.80;99.90;;;;;;4947436;29;20499;-47
2021/12/30 12:31:07;;;;;;;19.08;3.78;;;13.80;99.90;;;;;;4947212;29;20034;-38
2021/12/30 12:33:34;;;;;;;14.13;3.42;;;13.90;99.90;;;;;;4947017;29;20523;-38
2021/12/30 12:36:07;;;;;;;11.70;2.70;;;13.80;99.90;;;;;;4954161;29;20047;-35
2021/12/30 12:38:43;;;;;;;14.70;2.65;;;13.80;99.90;;;;;;4950258;29;20039;-39
2021/12/30 12:41:19;;;;;;;10.40;3.97;;;13.90;99.90;;;;;;4946706;29;20556;-47
2021/12/30 12:43:45;;;;;;;22.27;2.53;;;13.90;99.90;;;;;;4948043;29;20035;-41
2021/12/30 12:46:10;;;;;;;12.95;3.15;;;13.90;99.90;;;;;;4950063;29;20030;-39
2021/12/30 12:48:41;;;;;;;14.07;3.42;;;13.80;99.90;;;;;;4947100;29;20028;-40